createdAt,value
2022-10-23T00:00:17.846Z,0.00
2022-10-23T00:01:17.727Z,0.00
2022-10-23T00:02:17.759Z,0.00
2022-10-23T00:03:17.704Z,0.00
2022-10-23T00:04:17.699Z,0.00
2022-10-23T00:05:17.682Z,0.00
2022-10-23T00:06:17.762Z,0.00
2022-10-23T00:07:17.715Z,0.00
2022-10-23T00:08:17.653Z,0.00
2022-10-23T00:09:17.642Z,0.00
2022-10-23T00:10:17.634Z,0.00
2022-10-23T00:11:17.635Z,0.00
2022-10-23T00:12:17.627Z,0.00
2022-10-23T00:13:17.596Z,0.00
2022-10-23T00:14:17.577Z,0.00
2022-10-23T00:15:17.577Z,0.00
2022-10-23T00:16:17.586Z,0.00
2022-10-23T00:17:17.575Z,0.00
2022-10-23T00:18:17.539Z,0.00
2022-10-23T00:19:17.530Z,0.00
2022-10-23T00:20:17.516Z,0.00
2022-10-23T00:21:17.527Z,0.00
2022-10-23T00:22:17.517Z,0.00
2022-10-23T00:23:17.479Z,0.00
2022-10-23T00:24:17.469Z,0.00
2022-10-23T00:25:17.457Z,0.00
2022-10-23T00:26:17.469Z,0.00
2022-10-23T00:27:17.456Z,0.00
2022-10-23T00:28:17.428Z,0.00
2022-10-23T00:29:17.417Z,0.00
2022-10-23T00:30:17.407Z,0.00
2022-10-23T00:31:17.416Z,0.00
2022-10-23T00:32:17.379Z,0.00
2022-10-23T00:33:17.369Z,0.00
2022-10-23T00:34:17.359Z,0.00
2022-10-23T00:35:17.353Z,0.00
2022-10-23T00:36:17.358Z,0.00
2022-10-23T00:37:17.319Z,0.00
2022-10-23T00:38:17.316Z,0.00
2022-10-23T00:39:17.331Z,0.00
2022-10-23T00:40:17.291Z,0.00
2022-10-23T00:41:17.278Z,0.00
2022-10-23T00:42:17.270Z,0.00
2022-10-23T00:43:17.249Z,0.00
2022-10-23T00:44:24.329Z,0.00
2022-10-23T00:45:17.229Z,0.00
2022-10-23T00:46:17.220Z,0.00
2022-10-23T00:47:17.217Z,0.00
2022-10-23T00:48:17.200Z,0.00
2022-10-23T00:49:17.211Z,0.00
2022-10-23T00:50:17.261Z,0.00
2022-10-23T00:51:17.190Z,0.00
2022-10-23T00:52:17.232Z,0.00
2022-10-23T00:53:17.499Z,0.00
2022-10-23T00:54:25.395Z,0.00
2022-10-23T00:55:18.258Z,0.00
2022-10-23T00:56:17.138Z,0.00
2022-10-23T00:57:18.133Z,0.00
2022-10-23T00:58:18.482Z,0.00
2022-10-23T00:59:17.521Z,0.00
2022-10-23T01:00:17.408Z,0.00
2022-10-23T01:01:18.127Z,0.00
2022-10-23T01:02:18.522Z,0.00
2022-10-23T01:03:17.990Z,0.00
2022-10-23T01:04:17.794Z,0.00
2022-10-23T01:05:17.032Z,0.00
2022-10-23T01:06:17.307Z,0.00
2022-10-23T01:07:17.500Z,0.00
2022-10-23T01:08:17.603Z,0.00
2022-10-23T01:09:16.970Z,0.00
2022-10-23T01:10:17.541Z,0.00
2022-10-23T01:11:16.991Z,0.00
2022-10-23T01:12:16.982Z,0.00
2022-10-23T01:13:16.925Z,0.00
2022-10-23T01:14:17.004Z,0.00
2022-10-23T01:15:16.898Z,0.00
2022-10-23T01:16:17.151Z,0.00
2022-10-23T01:17:17.062Z,0.00
2022-10-23T01:18:17.034Z,0.00
2022-10-23T01:19:17.003Z,0.00
2022-10-23T01:20:16.984Z,0.00
2022-10-23T01:21:17.562Z,0.00
2022-10-23T01:22:16.946Z,0.00
2022-10-23T01:23:17.093Z,0.00
2022-10-23T01:24:16.802Z,0.00
2022-10-23T01:25:17.115Z,0.00
2022-10-23T01:26:16.793Z,0.00
2022-10-23T01:27:16.785Z,0.00
2022-10-23T01:28:16.773Z,0.00
2022-10-23T01:29:17.218Z,0.00
2022-10-23T01:30:16.945Z,0.00
2022-10-23T01:31:16.857Z,0.00
2022-10-23T01:32:16.784Z,0.00
2022-10-23T01:33:17.954Z,0.00
2022-10-23T01:34:16.835Z,0.00
2022-10-23T01:35:17.955Z,0.00
2022-10-23T01:36:17.365Z,0.00
2022-10-23T01:37:16.821Z,0.00
2022-10-23T01:38:16.898Z,0.00
2022-10-23T01:39:17.302Z,0.00
2022-10-23T01:40:16.732Z,0.00
2022-10-23T01:41:16.612Z,0.00
2022-10-23T01:42:16.722Z,0.00
2022-10-23T01:43:16.585Z,0.00
2022-10-23T01:44:16.726Z,0.00
2022-10-23T01:45:16.586Z,0.00
2022-10-23T01:46:16.554Z,0.00
2022-10-23T01:47:16.775Z,0.00
2022-10-23T01:48:16.566Z,0.00
2022-10-23T01:49:16.536Z,0.00
2022-10-23T01:50:16.593Z,0.00
2022-10-23T01:51:16.536Z,0.00
2022-10-23T01:52:16.616Z,0.00
2022-10-23T01:53:16.647Z,0.00
2022-10-23T01:54:16.467Z,0.00
2022-10-23T01:55:16.550Z,0.00
2022-10-23T01:56:16.474Z,0.00
2022-10-23T01:57:16.466Z,0.00
2022-10-23T01:58:16.414Z,0.00
2022-10-23T01:59:16.490Z,0.00
2022-10-23T02:00:16.457Z,0.00
2022-10-23T02:01:16.480Z,0.00
2022-10-23T02:02:16.430Z,0.00
2022-10-23T02:03:16.427Z,0.00
2022-10-23T02:04:16.377Z,0.00
2022-10-23T02:05:16.367Z,0.00
2022-10-23T02:06:16.366Z,0.00
2022-10-23T02:07:16.347Z,0.00
2022-10-23T02:08:16.345Z,0.00
2022-10-23T02:09:16.296Z,0.00
2022-10-23T02:10:16.397Z,0.00
2022-10-23T02:11:16.307Z,0.00
2022-10-23T02:12:16.772Z,0.00
2022-10-23T02:13:17.930Z,0.00
2022-10-23T02:14:16.785Z,0.00
2022-10-23T02:15:16.417Z,0.00
2022-10-23T02:16:16.217Z,0.00
2022-10-23T02:17:16.217Z,0.00
2022-10-23T02:18:16.249Z,0.00
2022-10-23T02:19:16.218Z,0.00
2022-10-23T02:20:16.348Z,0.00
2022-10-23T02:21:16.239Z,0.00
2022-10-23T02:22:16.148Z,0.00
2022-10-23T02:23:16.138Z,0.00
2022-10-23T02:24:16.167Z,0.00
2022-10-23T02:25:16.156Z,0.00
2022-10-23T02:26:16.108Z,0.00
2022-10-23T02:27:16.589Z,0.00
2022-10-23T02:28:16.195Z,0.00
2022-10-23T02:29:16.333Z,0.00
2022-10-23T02:30:17.057Z,0.00
2022-10-23T02:31:16.327Z,0.00
2022-10-23T02:32:16.346Z,0.00
2022-10-23T02:33:16.058Z,0.00
2022-10-23T02:34:16.030Z,0.00
2022-10-23T02:35:16.106Z,0.00
2022-10-23T02:36:16.011Z,0.00
2022-10-23T02:37:16.046Z,0.00
2022-10-23T02:38:16.171Z,0.00
2022-10-23T02:39:16.169Z,0.00
2022-10-23T02:40:16.208Z,0.00
2022-10-23T02:41:16.175Z,0.00
2022-10-23T02:42:15.999Z,0.00
2022-10-23T02:43:15.940Z,0.00
2022-10-23T02:44:15.918Z,0.00
2022-10-23T02:45:15.928Z,0.00
2022-10-23T02:46:16.121Z,0.00
2022-10-23T02:47:16.014Z,0.00
2022-10-23T02:48:15.872Z,0.00
2022-10-23T02:49:15.860Z,0.00
2022-10-23T02:50:15.877Z,0.00
2022-10-23T02:51:15.857Z,0.00
2022-10-23T02:52:15.870Z,0.00
2022-10-23T02:53:15.826Z,0.00
2022-10-23T02:54:15.809Z,0.00
2022-10-23T02:55:15.929Z,0.00
2022-10-23T02:56:15.802Z,0.00
2022-10-23T02:57:15.780Z,0.00
2022-10-23T02:58:15.770Z,0.00
2022-10-23T02:59:15.752Z,0.00
2022-10-23T03:00:15.819Z,0.00
2022-10-23T03:01:15.811Z,0.00
2022-10-23T03:02:15.860Z,0.00
2022-10-23T03:03:15.899Z,0.00
2022-10-23T03:04:15.750Z,0.00
2022-10-23T03:05:15.751Z,0.00
2022-10-23T03:06:15.712Z,0.00
2022-10-23T03:07:15.718Z,0.00
2022-10-23T03:08:15.651Z,0.00
2022-10-23T03:09:15.820Z,0.00
2022-10-23T03:10:15.681Z,0.00
2022-10-23T03:11:15.779Z,0.00
2022-10-23T03:12:15.735Z,0.00
2022-10-23T03:13:16.042Z,0.00
2022-10-23T03:14:15.833Z,0.00
2022-10-23T03:15:15.924Z,0.00
2022-10-23T03:16:15.932Z,0.00
2022-10-23T03:17:15.892Z,0.00
2022-10-23T03:18:19.813Z,0.00
2022-10-23T03:19:15.785Z,0.00
2022-10-23T03:20:15.830Z,0.00
2022-10-23T03:21:16.010Z,0.00
2022-10-23T03:22:16.121Z,0.00
2022-10-23T03:23:16.304Z,0.00
2022-10-23T03:24:16.420Z,0.00
2022-10-23T03:25:15.942Z,0.00
2022-10-23T03:26:16.216Z,0.00
2022-10-23T03:27:17.059Z,0.00
2022-10-23T03:28:15.444Z,0.00
2022-10-23T03:29:16.803Z,0.00
2022-10-23T03:30:15.725Z,0.00
2022-10-23T03:31:16.207Z,0.00
2022-10-23T03:32:16.357Z,0.00
2022-10-23T03:33:15.594Z,0.00
2022-10-23T03:34:16.275Z,0.00
2022-10-23T03:35:17.158Z,0.00
2022-10-23T03:36:15.654Z,0.00
2022-10-23T03:37:16.940Z,0.00
2022-10-23T03:38:17.302Z,0.00
2022-10-23T03:39:16.471Z,0.00
2022-10-23T03:40:15.967Z,0.00
2022-10-23T03:41:16.514Z,0.00
2022-10-23T03:42:17.384Z,0.00
2022-10-23T03:43:16.775Z,0.00
2022-10-23T03:44:15.667Z,0.00
2022-10-23T03:45:15.444Z,0.00
2022-10-23T03:46:16.225Z,0.00
2022-10-23T03:47:15.233Z,0.00
2022-10-23T03:48:15.931Z,0.00
2022-10-23T03:49:15.703Z,0.00
2022-10-23T03:50:15.586Z,0.00
2022-10-23T03:51:15.529Z,0.00
2022-10-23T03:52:15.366Z,0.00
2022-10-23T03:53:16.188Z,0.00
2022-10-23T03:54:16.033Z,0.00
2022-10-23T03:55:15.584Z,0.00
2022-10-23T03:56:15.403Z,0.00
2022-10-23T03:57:15.212Z,0.00
2022-10-23T03:58:15.354Z,0.00
2022-10-23T03:59:15.213Z,0.00
2022-10-23T04:00:15.086Z,0.00
2022-10-23T04:01:15.113Z,0.00
2022-10-23T04:02:15.219Z,0.00
2022-10-23T04:03:15.118Z,0.00
2022-10-23T04:04:15.149Z,0.00
2022-10-23T04:05:15.069Z,0.00
2022-10-23T04:06:15.015Z,0.00
2022-10-23T04:07:15.014Z,0.00
2022-10-23T04:08:17.691Z,0.00
2022-10-23T04:09:16.262Z,0.00
2022-10-23T04:10:15.287Z,0.00
2022-10-23T04:11:15.186Z,0.00
2022-10-23T04:12:15.247Z,0.00
2022-10-23T04:13:15.088Z,0.00
2022-10-23T04:14:15.096Z,0.00
2022-10-23T04:15:15.435Z,0.00
2022-10-23T04:16:14.986Z,0.00
2022-10-23T04:17:14.992Z,0.00
2022-10-23T04:18:14.889Z,0.00
2022-10-23T04:19:15.037Z,0.00
2022-10-23T04:20:14.906Z,0.00
2022-10-23T04:21:14.947Z,0.00
2022-10-23T04:22:14.886Z,0.00
2022-10-23T04:23:14.857Z,0.00
2022-10-23T04:24:14.849Z,0.00
2022-10-23T04:25:14.839Z,0.00
2022-10-23T04:26:14.806Z,0.00
2022-10-23T04:27:14.793Z,0.00
2022-10-23T04:28:14.908Z,0.00
2022-10-23T04:29:14.768Z,0.00
2022-10-23T04:30:14.806Z,0.00
2022-10-23T04:31:14.746Z,0.00
2022-10-23T04:32:14.739Z,0.00
2022-10-23T04:33:14.726Z,0.00
2022-10-23T04:34:14.717Z,0.00
2022-10-23T04:35:14.736Z,0.00
2022-10-23T04:36:14.706Z,0.00
2022-10-23T04:37:14.908Z,0.00
2022-10-23T04:38:14.680Z,0.00
2022-10-23T04:39:14.668Z,0.00
2022-10-23T04:40:14.668Z,0.00
2022-10-23T04:41:14.647Z,0.00
2022-10-23T04:42:14.666Z,0.00
2022-10-23T04:43:14.618Z,0.00
2022-10-23T04:44:14.605Z,0.00
2022-10-23T04:45:14.630Z,0.00
2022-10-23T04:46:14.588Z,0.00
2022-10-23T04:47:14.686Z,0.00
2022-10-23T04:48:14.559Z,0.00
2022-10-23T04:49:14.558Z,0.00
2022-10-23T04:50:14.560Z,0.00
2022-10-23T04:51:14.617Z,0.00
2022-10-23T04:52:14.518Z,0.00
2022-10-23T04:53:14.510Z,0.00
2022-10-23T04:54:14.529Z,0.00
2022-10-23T04:55:14.509Z,0.00
2022-10-23T04:56:14.509Z,0.00
2022-10-23T04:57:14.469Z,0.00
2022-10-23T04:58:14.455Z,0.00
2022-10-23T04:59:14.498Z,0.00
2022-10-23T05:00:14.459Z,0.00
2022-10-23T05:01:14.542Z,0.00
2022-10-23T05:02:14.412Z,0.00
2022-10-23T05:03:14.430Z,0.00
2022-10-23T05:04:14.432Z,0.00
2022-10-23T05:05:14.379Z,0.00
2022-10-23T05:06:14.403Z,0.00
2022-10-23T05:07:14.430Z,0.00
2022-10-23T05:08:17.864Z,0.00
2022-10-23T05:09:14.332Z,0.00
2022-10-23T05:10:14.388Z,0.00
2022-10-23T05:11:14.391Z,0.00
2022-10-23T05:12:14.300Z,0.00
2022-10-23T05:13:14.321Z,0.00
2022-10-23T05:14:16.276Z,0.00
2022-10-23T05:15:14.330Z,0.00
2022-10-23T05:16:14.258Z,0.00
2022-10-23T05:17:14.250Z,0.00
2022-10-23T05:18:14.230Z,0.00
2022-10-23T05:19:14.253Z,0.00
2022-10-23T05:20:14.219Z,0.00
2022-10-23T05:21:14.229Z,0.00
2022-10-23T05:22:14.199Z,0.00
2022-10-23T05:23:14.254Z,0.00
2022-10-23T05:24:14.171Z,0.00
2022-10-23T05:25:14.160Z,0.00
2022-10-23T05:26:14.171Z,0.00
2022-10-23T05:27:14.139Z,0.00
2022-10-23T05:28:14.123Z,0.00
2022-10-23T05:29:14.112Z,0.00
2022-10-23T05:30:14.102Z,0.00
2022-10-23T05:31:14.093Z,0.00
2022-10-23T05:32:14.142Z,0.00
2022-10-23T05:33:14.076Z,0.00
2022-10-23T05:34:14.054Z,0.00
2022-10-23T05:35:14.045Z,0.00
2022-10-23T05:36:14.053Z,0.00
2022-10-23T05:37:14.022Z,0.00
2022-10-23T05:38:14.011Z,0.00
2022-10-23T05:39:14.003Z,0.00
2022-10-23T05:40:13.992Z,0.00
2022-10-23T05:41:14.002Z,0.00
2022-10-23T05:42:13.961Z,4.00
2022-10-23T05:43:13.978Z,4.00
2022-10-23T05:44:13.945Z,0.00
2022-10-23T05:45:13.937Z,4.00
2022-10-23T05:46:13.945Z,8.00
2022-10-23T05:47:13.911Z,4.00
2022-10-23T05:48:29.732Z,8.00
2022-10-23T05:49:14.884Z,8.00
2022-10-23T05:50:13.873Z,8.00
2022-10-23T05:51:13.887Z,12.00
2022-10-23T05:52:13.854Z,16.00
2022-10-23T05:53:13.844Z,20.00
2022-10-23T05:54:13.825Z,20.00
2022-10-23T05:55:13.815Z,24.00
2022-10-23T05:56:13.825Z,28.00
2022-10-23T05:57:13.811Z,32.00
2022-10-23T05:58:13.783Z,40.00
2022-10-23T05:59:13.777Z,44.00
2022-10-23T06:00:13.774Z,48.00
2022-10-23T06:01:13.865Z,56.00
2022-10-23T06:02:13.792Z,60.00
2022-10-23T06:03:13.724Z,64.00
2022-10-23T06:04:13.715Z,72.00
2022-10-23T06:05:13.705Z,80.00
2022-10-23T06:06:13.715Z,88.00
2022-10-23T06:07:13.684Z,96.00
2022-10-23T06:08:13.674Z,104.00
2022-10-23T06:09:13.665Z,112.00
2022-10-23T06:10:13.666Z,120.00
2022-10-23T06:11:13.668Z,132.00
2022-10-23T06:12:13.656Z,144.00
2022-10-23T06:13:13.617Z,156.00
2022-10-23T06:14:13.606Z,172.00
2022-10-23T06:15:13.595Z,192.00
2022-10-23T06:16:13.586Z,212.00
2022-10-23T06:17:13.575Z,236.00
2022-10-23T06:18:13.576Z,260.00
2022-10-23T06:19:13.556Z,288.00
2022-10-23T06:20:13.536Z,316.00
2022-10-23T06:21:13.556Z,336.00
2022-10-23T06:22:13.543Z,364.00
2022-10-23T06:23:13.526Z,388.00
2022-10-23T06:24:13.506Z,408.00
2022-10-23T06:25:13.486Z,432.00
2022-10-23T06:26:13.499Z,456.00
2022-10-23T06:27:13.456Z,480.00
2022-10-23T06:28:16.987Z,500.00
2022-10-23T06:29:14.441Z,524.00
2022-10-23T06:30:13.426Z,548.00
2022-10-23T06:31:13.446Z,576.00
2022-10-23T06:32:13.405Z,608.00
2022-10-23T06:33:13.386Z,644.00
2022-10-23T06:34:13.379Z,688.00
2022-10-23T06:35:13.368Z,724.00
2022-10-23T06:36:13.367Z,768.00
2022-10-23T06:37:13.366Z,816.00
2022-10-23T06:38:13.338Z,864.00
2022-10-23T06:39:13.319Z,904.00
2022-10-23T06:40:13.313Z,952.00
2022-10-23T06:41:13.298Z,996.00
2022-10-23T06:42:13.317Z,1040.00
2022-10-23T06:43:13.277Z,1084.00
2022-10-23T06:44:13.267Z,1116.00
2022-10-23T06:45:21.055Z,1144.00
2022-10-23T06:46:13.248Z,1180.00
2022-10-23T06:47:13.290Z,1232.00
2022-10-23T06:48:13.227Z,1284.00
2022-10-23T06:49:13.208Z,1340.00
2022-10-23T06:50:15.441Z,1396.00
2022-10-23T06:51:13.187Z,1464.00
2022-10-23T06:52:18.500Z,1532.00
2022-10-23T06:53:14.168Z,1588.00
2022-10-23T06:54:13.157Z,1636.00
2022-10-23T06:55:13.148Z,1668.00
2022-10-23T06:56:13.141Z,1684.00
2022-10-23T06:57:13.137Z,1704.00
2022-10-23T06:58:13.110Z,1720.00
2022-10-23T06:59:13.099Z,1728.00
2022-10-23T07:00:13.088Z,1744.00
2022-10-23T07:01:13.266Z,1760.00
2022-10-23T07:02:13.068Z,1772.00
2022-10-23T07:03:13.078Z,1800.00
2022-10-23T07:04:13.052Z,1844.00
2022-10-23T07:05:13.874Z,1900.00
2022-10-23T07:06:13.021Z,1948.00
2022-10-23T07:07:13.030Z,1988.00
2022-10-23T07:08:13.006Z,2024.00
2022-10-23T07:09:12.989Z,2064.00
2022-10-23T07:11:12.971Z,2152.00
2022-10-23T07:12:12.982Z,2188.00
2022-10-23T07:13:12.942Z,2232.00
2022-10-23T07:14:12.941Z,2284.00
2022-10-23T07:15:12.921Z,2336.00
2022-10-23T07:16:12.922Z,2392.00
2022-10-23T07:17:12.922Z,2460.00
2022-10-23T07:18:12.898Z,2524.00
2022-10-23T07:19:12.884Z,2584.00
2022-10-23T07:20:12.879Z,2660.00
2022-10-23T07:21:12.860Z,2744.00
2022-10-23T07:22:15.724Z,2840.00
2022-10-23T07:23:12.861Z,2936.00
2022-10-23T07:24:13.207Z,3000.00
2022-10-23T07:25:13.443Z,3056.00
2022-10-23T07:26:14.134Z,3096.00
2022-10-23T07:27:13.162Z,3140.00
2022-10-23T07:28:13.472Z,3200.00
2022-10-23T07:29:12.805Z,3276.00
2022-10-23T07:30:12.831Z,3348.00
2022-10-23T07:31:13.343Z,3428.00
2022-10-23T07:32:12.950Z,3512.00
2022-10-23T07:33:13.252Z,3588.00
2022-10-23T07:34:12.749Z,3648.00
2022-10-23T07:36:12.824Z,3780.00
2022-10-23T07:37:12.720Z,3876.00
2022-10-23T07:38:13.157Z,3972.00
2022-10-23T07:39:12.913Z,4068.00
2022-10-23T07:40:12.703Z,4144.00
2022-10-23T07:41:12.851Z,4184.00
2022-10-23T07:42:13.416Z,4236.00
2022-10-23T07:43:12.864Z,4284.00
2022-10-23T07:44:12.662Z,4296.00
2022-10-23T07:45:13.196Z,4296.00
2022-10-23T07:46:12.714Z,4308.00
2022-10-23T07:47:12.623Z,4320.00
2022-10-23T07:48:12.571Z,4312.00
2022-10-23T07:49:12.656Z,4288.00
2022-10-23T07:50:12.573Z,4264.00
2022-10-23T07:51:12.545Z,4240.00
2022-10-23T07:52:12.597Z,4216.00
2022-10-23T07:53:12.534Z,4192.00
2022-10-23T07:54:12.513Z,4164.00
2022-10-23T07:55:12.497Z,4108.00
2022-10-23T07:56:12.484Z,4024.00
2022-10-23T07:57:12.574Z,3924.00
2022-10-23T07:58:12.472Z,3852.00
2022-10-23T07:59:12.445Z,3848.00
2022-10-23T08:00:12.558Z,3876.00
2022-10-23T08:01:12.475Z,3924.00
2022-10-23T08:02:12.458Z,3968.00
2022-10-23T08:03:12.405Z,4004.00
2022-10-23T08:04:12.397Z,4004.00
2022-10-23T08:05:12.428Z,4004.00
2022-10-23T08:06:12.378Z,4000.00
2022-10-23T08:07:12.376Z,3992.00
2022-10-23T08:08:12.376Z,3960.00
2022-10-23T08:09:12.406Z,3904.00
2022-10-23T08:10:12.355Z,3852.00
2022-10-23T08:11:12.326Z,3848.00
2022-10-23T08:12:12.317Z,3892.00
2022-10-23T08:13:12.326Z,3972.00
2022-10-23T08:14:12.289Z,4072.00
2022-10-23T08:15:12.276Z,4176.00
2022-10-23T08:16:12.269Z,4288.00
2022-10-23T08:17:12.278Z,4404.00
2022-10-23T08:18:12.370Z,4516.00
2022-10-23T08:19:12.407Z,4612.00
2022-10-23T08:20:12.218Z,4716.00
2022-10-23T08:21:12.310Z,4820.00
2022-10-23T08:22:12.197Z,4920.00
2022-10-23T08:23:12.189Z,5016.00
2022-10-23T08:24:12.198Z,5116.00
2022-10-23T08:25:12.236Z,5216.00
2022-10-23T08:26:12.183Z,5272.00
2022-10-23T08:27:12.168Z,5292.00
2022-10-23T08:28:12.183Z,5308.00
2022-10-23T08:29:12.201Z,5316.00
2022-10-23T08:30:12.118Z,5348.00
2022-10-23T08:31:12.148Z,5348.00
2022-10-23T08:32:12.091Z,5304.00
2022-10-23T08:33:12.079Z,5220.00
2022-10-23T08:34:12.117Z,5128.00
2022-10-23T08:35:12.060Z,5024.00
2022-10-23T08:36:12.098Z,4924.00
2022-10-23T08:37:12.041Z,4808.00
2022-10-23T08:38:12.050Z,4708.00
2022-10-23T08:39:12.017Z,4624.00
2022-10-23T08:40:12.001Z,4544.00
2022-10-23T08:41:11.991Z,4492.00
2022-10-23T08:42:11.983Z,4444.00
2022-10-23T08:43:12.004Z,4404.00
2022-10-23T08:44:11.960Z,4392.00
2022-10-23T08:45:11.945Z,4416.00
2022-10-23T08:46:11.983Z,4468.00
2022-10-23T08:47:11.924Z,4516.00
2022-10-23T08:48:11.930Z,4556.00
2022-10-23T08:49:11.914Z,4584.00
2022-10-23T08:50:11.954Z,4616.00
2022-10-23T08:51:11.970Z,4660.00
2022-10-23T08:52:14.074Z,4732.00
2022-10-23T08:53:11.872Z,4824.00
2022-10-23T08:54:12.285Z,4920.00
2022-10-23T08:55:11.893Z,5028.00
2022-10-23T08:56:11.949Z,5168.00
2022-10-23T08:57:11.863Z,5360.00
2022-10-23T08:58:11.824Z,5616.00
2022-10-23T08:59:11.887Z,5912.00
2022-10-23T09:00:12.058Z,6244.00
2022-10-23T09:01:12.007Z,6548.00
2022-10-23T09:02:11.821Z,6812.00
2022-10-23T09:03:11.789Z,7052.00
2022-10-23T09:04:11.994Z,7272.00
2022-10-23T09:05:11.785Z,7444.00
2022-10-23T09:06:11.758Z,7584.00
2022-10-23T09:07:11.747Z,7724.00
2022-10-23T09:08:11.703Z,7892.00
2022-10-23T09:09:11.675Z,8080.00
2022-10-23T09:10:11.683Z,8244.00
2022-10-23T09:11:11.723Z,8340.00
2022-10-23T09:12:11.655Z,8408.00
2022-10-23T09:13:11.637Z,8528.00
2022-10-23T09:14:11.626Z,8672.00
2022-10-23T09:15:11.627Z,8848.00
2022-10-23T09:16:11.772Z,8928.00
2022-10-23T09:17:11.645Z,8904.00
2022-10-23T09:18:11.586Z,8792.00
2022-10-23T09:19:12.199Z,8812.00
2022-10-23T09:20:11.586Z,8952.00
2022-10-23T09:21:11.545Z,9120.00
2022-10-23T09:22:11.539Z,9248.00
2022-10-23T09:23:11.537Z,9412.00
2022-10-23T09:24:11.516Z,9604.00
2022-10-23T09:25:11.505Z,9772.00
2022-10-23T09:26:11.519Z,9948.00
2022-10-23T09:27:11.492Z,10124.00
2022-10-23T09:28:11.475Z,10080.00
2022-10-23T09:29:11.469Z,10088.00
2022-10-23T09:30:11.460Z,10084.00
2022-10-23T09:31:11.469Z,10096.00
2022-10-23T09:32:11.429Z,10180.00
2022-10-23T09:33:11.440Z,10292.00
2022-10-23T09:34:11.849Z,10400.00
2022-10-23T09:35:11.390Z,10456.00
2022-10-23T09:36:11.389Z,10404.00
2022-10-23T09:37:11.371Z,10368.00
2022-10-23T09:38:11.389Z,10340.00
2022-10-23T09:39:11.349Z,10220.00
2022-10-23T09:40:11.342Z,10136.00
2022-10-23T09:41:11.330Z,10024.00
2022-10-23T09:42:11.320Z,9612.00
2022-10-23T09:43:11.314Z,9188.00
2022-10-23T09:44:11.320Z,9008.00
2022-10-23T09:45:11.281Z,8904.00
2022-10-23T09:46:11.291Z,8952.00
2022-10-23T09:47:11.387Z,9056.00
2022-10-23T09:48:11.284Z,9020.00
2022-10-23T09:49:11.243Z,9008.00
2022-10-23T09:50:11.231Z,8984.00
2022-10-23T09:51:11.224Z,8924.00
2022-10-23T09:52:11.212Z,8916.00
2022-10-23T09:53:11.194Z,8972.00
2022-10-23T09:54:11.212Z,9048.00
2022-10-23T09:55:11.172Z,9064.00
2022-10-23T09:56:11.163Z,9112.00
2022-10-23T09:57:11.173Z,9248.00
2022-10-23T09:58:11.142Z,9536.00
2022-10-23T09:59:11.153Z,9948.00
2022-10-23T10:00:11.123Z,10468.00
2022-10-23T10:01:11.285Z,11064.00
2022-10-23T10:02:11.185Z,11504.00
2022-10-23T10:03:11.114Z,11668.00
2022-10-23T10:04:11.094Z,11856.00
2022-10-23T10:05:11.065Z,12272.00
2022-10-23T10:06:11.070Z,12240.00
2022-10-23T10:07:11.044Z,12308.00
2022-10-23T10:08:11.037Z,12324.00
2022-10-23T10:09:11.046Z,12416.00
2022-10-23T10:10:11.015Z,12512.00
2022-10-23T10:11:10.996Z,12332.00
2022-10-23T10:12:10.996Z,11668.00
2022-10-23T10:13:14.273Z,10596.00
2022-10-23T10:14:10.970Z,9884.00
2022-10-23T10:15:10.965Z,9456.00
2022-10-23T10:16:10.957Z,9120.00
2022-10-23T10:17:10.939Z,8700.00
2022-10-23T10:18:10.948Z,8360.00
2022-10-23T10:19:10.914Z,8132.00
2022-10-23T10:20:10.909Z,8212.00
2022-10-23T10:21:10.886Z,8428.00
2022-10-23T10:22:10.887Z,8868.00
2022-10-23T10:23:10.891Z,9400.00
2022-10-23T10:24:10.857Z,9896.00
2022-10-23T10:25:10.849Z,10260.00
2022-10-23T10:26:10.860Z,10444.00
2022-10-23T10:27:10.829Z,10484.00
2022-10-23T10:28:10.821Z,10596.00
2022-10-23T10:29:10.822Z,10744.00
2022-10-23T10:30:10.798Z,10916.00
2022-10-23T10:31:10.800Z,11176.00
2022-10-23T10:32:10.771Z,11972.00
2022-10-23T10:33:10.773Z,12492.00
2022-10-23T10:34:10.771Z,12880.00
2022-10-23T10:35:10.739Z,12668.00
2022-10-23T10:36:10.821Z,12216.00
2022-10-23T10:37:10.731Z,12024.00
2022-10-23T10:38:10.744Z,11884.00
2022-10-23T10:39:10.754Z,11840.00
2022-10-23T10:40:10.683Z,11720.00
2022-10-23T10:41:10.676Z,11548.00
2022-10-23T10:42:10.661Z,11416.00
2022-10-23T10:43:10.654Z,11072.00
2022-10-23T10:44:10.659Z,10936.00
2022-10-23T10:45:10.632Z,10852.00
2022-10-23T10:46:10.689Z,10632.00
2022-10-23T10:47:10.614Z,10296.00
2022-10-23T10:48:10.595Z,10072.00
2022-10-23T10:49:10.614Z,9752.00
2022-10-23T10:50:10.573Z,9460.00
2022-10-23T10:51:10.564Z,9428.00
2022-10-23T10:52:10.557Z,9456.00
2022-10-23T10:53:10.545Z,9444.00
2022-10-23T10:54:10.575Z,9332.00
2022-10-23T10:55:10.517Z,9208.00
2022-10-23T10:57:10.496Z,9068.00
2022-10-23T10:58:10.486Z,8928.00
2022-10-23T10:59:10.501Z,8884.00
2022-10-23T11:00:10.467Z,9028.00
2022-10-23T11:01:10.517Z,9116.00
2022-10-23T11:02:10.599Z,9060.00
2022-10-23T11:03:10.435Z,8780.00
2022-10-23T11:04:10.440Z,8384.00
2022-10-23T11:05:10.417Z,8000.00
2022-10-23T11:06:10.401Z,7616.00
2022-10-23T11:07:10.388Z,7400.00
2022-10-23T11:08:10.377Z,7220.00
2022-10-23T11:09:20.164Z,7116.00
2022-10-23T11:10:11.358Z,7036.00
2022-10-23T11:11:10.356Z,7008.00
2022-10-23T11:12:10.330Z,7068.00
2022-10-23T11:13:10.320Z,7232.00
2022-10-23T11:14:10.308Z,7372.00
2022-10-23T11:15:10.330Z,7488.00
2022-10-23T11:16:10.315Z,7624.00
2022-10-23T11:17:10.280Z,7680.00
2022-10-23T11:18:10.269Z,7636.00
2022-10-23T11:19:13.842Z,7456.00
2022-10-23T11:20:10.279Z,7104.00
2022-10-23T11:21:10.247Z,6804.00
2022-10-23T11:22:10.229Z,6940.00
2022-10-23T11:23:10.212Z,7408.00
2022-10-23T11:25:10.193Z,8156.00
2022-10-23T11:26:10.201Z,8272.00
2022-10-23T11:27:10.172Z,7996.00
2022-10-23T11:28:10.694Z,7544.00
2022-10-23T11:29:10.155Z,6892.00
2022-10-23T11:30:10.178Z,6220.00
2022-10-23T11:31:12.156Z,6004.00
2022-10-23T11:32:10.115Z,5840.00
2022-10-23T11:33:10.115Z,5624.00
2022-10-23T11:34:10.096Z,5476.00
2022-10-23T11:35:10.105Z,5560.00
2022-10-23T11:36:10.073Z,6104.00
2022-10-23T11:37:10.065Z,6428.00
2022-10-23T11:38:10.046Z,6416.00
2022-10-23T11:39:10.045Z,6444.00
2022-10-23T11:40:10.046Z,6524.00
2022-10-23T11:41:10.026Z,6400.00
2022-10-23T11:42:10.005Z,6176.00
2022-10-23T11:43:09.996Z,6000.00
2022-10-23T11:44:09.986Z,6188.00
2022-10-23T11:45:10.000Z,6588.00
2022-10-23T11:46:09.971Z,6616.00
2022-10-23T11:47:09.957Z,6500.00
2022-10-23T11:48:09.937Z,6432.00
2022-10-23T11:49:09.973Z,6316.00
2022-10-23T11:50:09.937Z,6224.00
2022-10-23T11:51:09.911Z,6152.00
2022-10-23T11:52:09.900Z,6228.00
2022-10-23T11:53:14.010Z,6260.00
2022-10-23T11:54:10.879Z,6180.00
2022-10-23T11:55:09.890Z,6072.00
2022-10-23T11:56:09.877Z,6032.00
2022-10-23T11:57:10.752Z,5992.00
2022-10-23T11:58:09.836Z,5976.00
2022-10-23T11:59:09.822Z,5924.00
2022-10-23T12:00:09.830Z,5840.00
2022-10-23T12:01:09.864Z,5732.00
2022-10-23T12:02:09.818Z,5588.00
2022-10-23T12:03:09.790Z,5412.00
2022-10-23T12:04:09.761Z,5340.00
2022-10-23T12:05:09.753Z,5312.00
2022-10-23T12:06:09.761Z,5112.00
2022-10-23T12:07:09.733Z,4708.00
2022-10-23T12:08:09.720Z,4392.00
2022-10-23T12:09:09.727Z,4216.00
2022-10-23T12:10:09.700Z,4260.00
2022-10-23T12:11:09.711Z,4460.00
2022-10-23T12:12:09.674Z,4588.00
2022-10-23T12:13:09.662Z,4800.00
2022-10-23T12:14:09.682Z,5216.00
2022-10-23T12:15:09.643Z,5496.00
2022-10-23T12:16:09.715Z,5468.00
2022-10-23T12:17:09.623Z,5372.00
2022-10-23T12:18:09.613Z,5344.00
2022-10-23T12:19:09.605Z,5584.00
2022-10-23T12:20:09.594Z,5864.00
2022-10-23T12:21:09.605Z,5720.00
2022-10-23T12:22:09.566Z,5256.00
2022-10-23T12:23:09.568Z,4848.00
2022-10-23T12:24:09.548Z,4912.00
2022-10-23T12:25:09.541Z,5116.00
2022-10-23T12:26:09.577Z,5348.00
2022-10-23T12:27:09.515Z,5720.00
2022-10-23T12:28:09.508Z,5920.00
2022-10-23T12:29:09.499Z,6052.00
2022-10-23T12:30:09.482Z,6280.00
2022-10-23T12:31:09.497Z,6468.00
2022-10-23T12:32:09.466Z,6612.00
2022-10-23T12:33:09.454Z,6712.00
2022-10-23T12:34:09.439Z,6780.00
2022-10-23T12:35:09.437Z,7032.00
2022-10-23T12:36:09.436Z,7168.00
2022-10-23T12:37:09.407Z,7096.00
2022-10-23T12:38:09.407Z,6912.00
2022-10-23T12:39:09.422Z,6624.00
2022-10-23T12:40:09.501Z,6252.00
2022-10-23T12:41:09.387Z,5964.00
2022-10-23T12:42:09.351Z,5684.00